Time;durP1;ratioP1;P1;durP2;ratioP2;P2;SDS_P1;SDS_P2;PMS_P1;PMS_P2;Temp;Humidity;BMP_temperature;BMP_pressure;BME280_temperature;BME280_humidity;BME280_pressure;Samples;Min_cycle;Max_cycle;Signal;HPM_P1;HPM_P2
2022/10/12 00:01:16;;;;;;;;;10.25;7.50;;;;;;;;5033646;28;11608;-79
2022/10/12 00:03:45;;;;;;;;;9.00;8.75;;;;;;;;5047895;28;11504;-79
2022/10/12 00:06:15;;;;;;;;;8.00;6.25;;;;;;;;5021076;28;11592;-79
2022/10/12 00:08:44;;;;;;;;;11.00;7.00;;;;;;;;5041132;27;11447;-79
2022/10/12 00:11:13;;;;;;;;;7.00;6.00;;;;;;;;5022114;28;11644;-78
2022/10/12 00:13:41;;;;;;;;;9.25;7.75;;;;;;;;5039648;27;11474;-78
2022/10/12 00:16:11;;;;;;;;;10.50;10.50;;;;;;;;5049550;27;12256;-78
2022/10/12 00:18:39;;;;;;;;;11.50;11.50;;;;;;;;5042293;27;11528;-78
2022/10/12 00:21:10;;;;;;;;;9.75;9.25;;;;;;;;5030983;27;11534;-78
2022/10/12 00:23:39;;;;;;;;;12.75;11.00;;;;;;;;5017824;28;11508;-78
2022/10/12 00:26:08;;;;;;;;;9.50;8.25;;;;;;;;5042494;27;11674;-78
2022/10/12 00:28:36;;;;;;;;;7.25;7.25;;;;;;;;5045881;27;11503;-78
2022/10/12 00:31:08;;;;;;;;;7.50;7.50;;;;;;;;5023762;27;11502;-78
2022/10/12 00:33:37;;;;;;;;;7.00;7.00;;;;;;;;5043322;27;11488;-78
2022/10/12 00:36:14;;;;;;;;;4.25;4.25;;;;;;;;5043117;27;11626;-79
2022/10/12 00:38:41;;;;;;;;;7.00;7.00;;;;;;;;5042489;27;11497;-78
2022/10/12 00:41:09;;;;;;;;;7.50;7.50;;;;;;;;5026665;27;11511;-78
2022/10/12 00:43:40;;;;;;;;;7.00;7.00;;;;;;;;5035789;27;11452;-78
2022/10/12 00:46:13;;;;;;;;;7.75;7.75;;;;;;;;5020664;27;11475;-78
2022/10/12 00:48:42;;;;;;;;;7.00;7.00;;;;;;;;5117398;27;11494;-78
2022/10/12 00:51:12;;;;;;;;;11.50;7.00;;;;;;;;5030065;27;11592;-78
2022/10/12 00:53:44;;;;;;;;;7.50;6.25;;;;;;;;5030409;27;11611;-79
2022/10/12 00:56:16;;;;;;;;;8.00;8.00;;;;;;;;5057940;27;11498;-79
2022/10/12 00:58:44;;;;;;;;;9.50;7.75;;;;;;;;5030111;27;11487;-80
2022/10/12 01:01:11;;;;;;;;;6.75;6.75;;;;;;;;5042794;27;12368;-79
2022/10/12 01:03:39;;;;;;;;;9.00;7.25;;;;;;;;5032578;27;11506;-79
2022/10/12 01:06:07;;;;;;;;;6.50;6.50;;;;;;;;5049481;27;11642;-79
2022/10/12 01:08:37;;;;;;;;;7.00;7.00;;;;;;;;5031318;27;11501;-79
2022/10/12 01:11:05;;;;;;;;;1.00;1.00;;;;;;;;5039022;27;12261;-78
2022/10/12 01:13:33;;;;;;;;;11.75;7.50;;;;;;;;5013248;27;11497;-79
2022/10/12 01:16:08;;;;;;;;;8.25;7.00;;;;;;;;5017863;28;11484;-78
2022/10/12 01:18:43;;;;;;;;;6.50;6.50;;;;;;;;5032970;27;11438;-77
2022/10/12 01:21:17;;;;;;;;;8.00;6.00;;;;;;;;5039399;27;11456;-77
2022/10/12 01:24:11;;;;;;;;;7.25;6.00;;;;;;;;5028358;27;11609;-77
2022/10/12 01:27:01;;;;;;;;;7.50;6.00;;;;;;;;5027170;28;11514;-78
2022/10/12 01:29:58;;;;;;;;;7.50;7.50;;;;;;;;5032601;27;11528;-78
2022/10/12 01:32:34;;;;;;;;;7.75;6.25;;;;;;;;5030441;27;11510;-79
2022/10/12 01:35:06;;;;;;;;;7.00;7.00;;;;;;;;5034843;27;11464;-78
2022/10/12 01:37:42;;;;;;;;;7.00;5.50;;;;;;;;5046760;27;11497;-79
2022/10/12 01:40:13;;;;;;;;;6.75;6.75;;;;;;;;5023747;27;11549;-79
2022/10/12 01:42:42;;;;;;;;;5.25;5.25;;;;;;;;5075210;27;11466;-79
2022/10/12 01:45:13;;;;;;;;;7.75;6.25;;;;;;;;5049592;27;11550;-79
2022/10/12 01:47:44;;;;;;;;;7.00;7.00;;;;;;;;5019317;27;11546;-78
2022/10/12 01:50:12;;;;;;;;;8.50;8.50;;;;;;;;5031900;27;11477;-79
2022/10/12 01:52:45;;;;;;;;;12.50;9.75;;;;;;;;5047664;27;11483;-78
2022/10/12 01:55:26;;;;;;;;;7.00;7.00;;;;;;;;5035137;27;11532;-79
2022/10/12 01:58:09;;;;;;;;;7.00;7.00;;;;;;;;5053613;27;11479;-79
2022/10/12 02:00:42;;;;;;;;;10.25;10.00;;;;;;;;5020241;27;11464;-79
2022/10/12 02:03:17;;;;;;;;;10.75;8.00;;;;;;;;5033067;27;11669;-78
2022/10/12 02:05:49;;;;;;;;;5.50;5.50;;;;;;;;5045304;27;12223;-78
2022/10/12 02:08:25;;;;;;;;;11.00;10.00;;;;;;;;5054100;27;11614;-80
2022/10/12 02:10:55;;;;;;;;;9.50;9.50;;;;;;;;5033268;27;11592;-78
2022/10/12 02:13:25;;;;;;;;;10.00;7.25;;;;;;;;5036234;27;11584;-80
2022/10/12 02:15:54;;;;;;;;;8.00;8.00;;;;;;;;5053258;27;11510;-79
2022/10/12 02:18:24;;;;;;;;;10.00;10.00;;;;;;;;5037545;27;11498;-79
2022/10/12 02:20:54;;;;;;;;;10.50;8.50;;;;;;;;5009164;27;12293;-79
2022/10/12 02:23:23;;;;;;;;;7.00;7.00;;;;;;;;5029590;27;11467;-80
2022/10/12 02:25:53;;;;;;;;;11.50;7.50;;;;;;;;5030086;27;11531;-80
2022/10/12 02:28:24;;;;;;;;;7.50;7.50;;;;;;;;5050807;27;11496;-80
2022/10/12 02:30:57;;;;;;;;;10.00;10.00;;;;;;;;5033835;28;11594;-78
2022/10/12 02:33:32;;;;;;;;;9.50;9.50;;;;;;;;5066021;27;11504;-78
2022/10/12 02:36:03;;;;;;;;;11.25;8.00;;;;;;;;5046014;27;11519;-79
2022/10/12 02:38:34;;;;;;;;;7.00;7.00;;;;;;;;5051508;27;12428;-79
2022/10/12 02:41:05;;;;;;;;;10.50;7.75;;;;;;;;5043116;27;11478;-79
2022/10/12 02:43:37;;;;;;;;;11.75;10.00;;;;;;;;5043870;27;11519;-78
2022/10/12 02:46:06;;;;;;;;;12.50;8.25;;;;;;;;5048725;27;11517;-79
2022/10/12 02:48:37;;;;;;;;;8.00;8.00;;;;;;;;5033294;27;11544;-79
2022/10/12 02:51:05;;;;;;;;;15.50;14.25;;;;;;;;5031529;27;11499;-80
2022/10/12 02:53:32;;;;;;;;;9.25;7.00;;;;;;;;5031701;27;11518;-79
2022/10/12 02:56:02;;;;;;;;;8.75;7.25;;;;;;;;5027078;27;11556;-78
2022/10/12 02:58:30;;;;;;;;;9.75;7.00;;;;;;;;5035807;27;10944;-78
2022/10/12 03:00:58;;;;;;;;;12.00;9.75;;;;;;;;5023684;27;11491;-80
2022/10/12 03:03:25;;;;;;;;;10.00;7.00;;;;;;;;5058698;27;11594;-78
2022/10/12 03:05:54;;;;;;;;;5.75;5.75;;;;;;;;5031577;27;11480;-78
2022/10/12 03:08:22;;;;;;;;;7.50;7.50;;;;;;;;5022391;28;11478;-78
2022/10/12 03:10:50;;;;;;;;;10.00;8.00;;;;;;;;5020047;28;11646;-77
2022/10/12 03:13:18;;;;;;;;;7.25;7.25;;;;;;;;5028342;27;11459;-77
2022/10/12 03:15:45;;;;;;;;;10.25;10.00;;;;;;;;5027709;27;11460;-78
2022/10/12 03:18:12;;;;;;;;;9.25;7.75;;;;;;;;5039865;27;11557;-78
2022/10/12 03:20:40;;;;;;;;;6.00;6.00;;;;;;;;5024742;27;11481;-77
2022/10/12 03:23:09;;;;;;;;;6.25;6.25;;;;;;;;5034813;27;12315;-77
2022/10/12 03:25:37;;;;;;;;;12.25;10.75;;;;;;;;5038032;27;11587;-78
2022/10/12 03:28:04;;;;;;;;;10.50;6.75;;;;;;;;5035924;27;11524;-78
2022/10/12 03:30:32;;;;;;;;;8.25;8.25;;;;;;;;5027427;28;12459;-78
2022/10/12 03:32:59;;;;;;;;;9.75;8.00;;;;;;;;5028840;28;11599;-78
2022/10/12 03:35:27;;;;;;;;;10.00;10.00;;;;;;;;5082658;27;11531;-78
2022/10/12 03:37:55;;;;;;;;;10.00;7.75;;;;;;;;5030086;28;11525;-78
2022/10/12 03:40:24;;;;;;;;;8.00;8.00;;;;;;;;5040765;28;11631;-78
2022/10/12 03:42:52;;;;;;;;;8.50;7.00;;;;;;;;5035219;27;11636;-78
2022/10/12 03:45:20;;;;;;;;;10.00;10.00;;;;;;;;5033215;27;11476;-78
2022/10/12 03:47:47;;;;;;;;;11.00;10.75;;;;;;;;5024302;27;12365;-78
2022/10/12 03:50:15;;;;;;;;;13.75;11.50;;;;;;;;5059701;27;11619;-78
2022/10/12 03:52:43;;;;;;;;;8.00;8.00;;;;;;;;5028260;27;11523;-78
2022/10/12 03:55:10;;;;;;;;;10.00;10.00;;;;;;;;5062494;27;11495;-78
2022/10/12 03:57:39;;;;;;;;;7.25;6.75;;;;;;;;5043270;27;11489;-78
2022/10/12 04:00:10;;;;;;;;;10.50;10.25;;;;;;;;5040827;27;11628;-79
2022/10/12 04:02:38;;;;;;;;;9.00;9.00;;;;;;;;5029373;27;11605;-80
2022/10/12 04:05:06;;;;;;;;;11.50;8.25;;;;;;;;5029930;27;11538;-80
2022/10/12 04:07:34;;;;;;;;;11.00;7.75;;;;;;;;5029887;27;11493;-79
2022/10/12 04:10:04;;;;;;;;;8.75;8.75;;;;;;;;5038073;27;11517;-79
2022/10/12 04:12:32;;;;;;;;;11.00;7.25;;;;;;;;5039145;27;11623;-78
2022/10/12 04:15:01;;;;;;;;;11.50;11.50;;;;;;;;5040651;27;11523;-78
2022/10/12 04:17:28;;;;;;;;;11.75;10.75;;;;;;;;5028650;27;11552;-79
2022/10/12 04:19:55;;;;;;;;;12.00;11.00;;;;;;;;5036324;27;11478;-79
2022/10/12 04:22:24;;;;;;;;;11.00;9.00;;;;;;;;5040946;27;11573;-79
2022/10/12 04:24:52;;;;;;;;;5.50;5.00;;;;;;;;5053649;27;11536;-79
2022/10/12 04:27:20;;;;;;;;;9.75;8.75;;;;;;;;5035988;27;11448;-79
2022/10/12 04:29:47;;;;;;;;;10.00;10.00;;;;;;;;5029262;27;11475;-80
2022/10/12 04:32:16;;;;;;;;;8.50;8.50;;;;;;;;5036052;27;11508;-79
2022/10/12 04:34:44;;;;;;;;;8.50;6.75;;;;;;;;5044106;27;11542;-79
2022/10/12 04:37:12;;;;;;;;;10.00;10.00;;;;;;;;5053044;27;11650;-78
2022/10/12 04:39:39;;;;;;;;;9.75;9.75;;;;;;;;5053279;27;11535;-81
2022/10/12 04:42:07;;;;;;;;;11.75;10.75;;;;;;;;5043100;27;11525;-81
2022/10/12 04:44:35;;;;;;;;;10.75;10.75;;;;;;;;5038559;27;11533;-79
2022/10/12 04:47:02;;;;;;;;;10.75;9.50;;;;;;;;5057580;27;11560;-79
2022/10/12 04:49:31;;;;;;;;;7.00;7.00;;;;;;;;5042226;27;12326;-79
2022/10/12 04:51:59;;;;;;;;;9.50;9.50;;;;;;;;5026558;27;11461;-78
2022/10/12 04:54:27;;;;;;;;;9.25;9.25;;;;;;;;5045139;27;11513;-79
2022/10/12 04:56:54;;;;;;;;;8.25;8.25;;;;;;;;5026600;27;11475;-79
2022/10/12 04:59:22;;;;;;;;;12.25;10.50;;;;;;;;5027326;27;11506;-77
2022/10/12 05:01:49;;;;;;;;;10.25;10.25;;;;;;;;5045936;27;11608;-78
2022/10/12 05:04:17;;;;;;;;;15.00;11.00;;;;;;;;5017956;27;11588;-78
2022/10/12 05:06:46;;;;;;;;;6.50;6.50;;;;;;;;5045080;27;12375;-78
2022/10/12 05:09:13;;;;;;;;;9.25;9.25;;;;;;;;5075274;27;11554;-79
2022/10/12 05:11:41;;;;;;;;;12.75;9.00;;;;;;;;5047004;27;11626;-79
2022/10/12 05:14:11;;;;;;;;;11.00;9.00;;;;;;;;5039592;28;11536;-78
2022/10/12 05:16:39;;;;;;;;;7.25;7.25;;;;;;;;5045948;27;12353;-78
2022/10/12 05:19:06;;;;;;;;;10.00;10.00;;;;;;;;5038667;27;11599;-77
2022/10/12 05:21:36;;;;;;;;;12.75;10.50;;;;;;;;5023815;27;11613;-85
2022/10/12 05:24:06;;;;;;;;;11.25;7.25;;;;;;;;5052470;27;11537;-87
2022/10/12 05:26:34;;;;;;;;;7.00;7.00;;;;;;;;5031677;27;11523;-86
2022/10/12 05:29:02;;;;;;;;;13.50;7.75;;;;;;;;5058877;27;11474;-85
2022/10/12 05:31:29;;;;;;;;;11.25;10.00;;;;;;;;5033615;27;11523;-82
2022/10/12 05:33:57;;;;;;;;;7.75;7.75;;;;;;;;5055317;27;11673;-85
2022/10/12 05:36:25;;;;;;;;;10.50;9.50;;;;;;;;5041329;27;11539;-86
2022/10/12 05:38:53;;;;;;;;;10.00;10.00;;;;;;;;5045204;27;11591;-85
2022/10/12 05:41:22;;;;;;;;;14.00;11.00;;;;;;;;5030032;27;11672;-83
2022/10/12 05:43:52;;;;;;;;;8.25;8.25;;;;;;;;5038713;27;11536;-84
2022/10/12 05:46:22;;;;;;;;;9.50;9.25;;;;;;;;5083530;27;11612;-87
2022/10/12 05:48:49;;;;;;;;;9.00;9.00;;;;;;;;5055389;27;11528;-83
2022/10/12 05:51:20;;;;;;;;;13.25;10.50;;;;;;;;5052889;27;11513;-86
2022/10/12 05:53:48;;;;;;;;;12.25;11.00;;;;;;;;5026935;27;11515;-87
2022/10/12 05:56:16;;;;;;;;;9.75;9.75;;;;;;;;5043213;27;11553;-85
2022/10/12 05:58:46;;;;;;;;;11.00;10.00;;;;;;;;5046326;27;11490;-87
2022/10/12 06:01:15;;;;;;;;;11.00;9.25;;;;;;;;5031404;27;11571;-86
2022/10/12 06:03:43;;;;;;;;;9.25;9.25;;;;;;;;5037850;27;11544;-86
2022/10/12 06:06:10;;;;;;;;;12.75;12.75;;;;;;;;5040843;27;11504;-86
2022/10/12 06:08:38;;;;;;;;;11.00;11.00;;;;;;;;5065741;27;11556;-86
2022/10/12 06:11:06;;;;;;;;;10.75;10.75;;;;;;;;5040425;27;11566;-87
2022/10/12 06:13:37;;;;;;;;;14.00;11.75;;;;;;;;5010623;27;11645;-86
2022/10/12 06:16:07;;;;;;;;;10.00;10.00;;;;;;;;5033790;27;12344;-84
2022/10/12 06:18:37;;;;;;;;;13.25;11.00;;;;;;;;5048845;27;11562;-89
2022/10/12 06:21:05;;;;;;;;;12.75;12.75;;;;;;;;5046311;27;11544;-81
2022/10/12 06:23:35;;;;;;;;;14.25;12.75;;;;;;;;5069207;27;11550;-79
2022/10/12 06:26:02;;;;;;;;;14.00;11.25;;;;;;;;5035804;27;12367;-76
2022/10/12 06:28:30;;;;;;;;;14.50;14.50;;;;;;;;5041431;27;11545;-78
2022/10/12 06:31:01;;;;;;;;;12.50;12.50;;;;;;;;5050657;27;12321;-76
2022/10/12 06:33:31;;;;;;;;;15.25;11.50;;;;;;;;5001881;28;11577;-76
2022/10/12 06:35:59;;;;;;;;;8.25;8.25;;;;;;;;5024556;27;11488;-76
2022/10/12 06:38:26;;;;;;;;;11.00;11.00;;;;;;;;5018777;27;11585;-76
2022/10/12 06:40:54;;;;;;;;;13.00;12.00;;;;;;;;5021037;27;11574;-75
2022/10/12 06:43:24;;;;;;;;;12.25;12.25;;;;;;;;5042992;27;11529;-81
2022/10/12 06:45:52;;;;;;;;;11.00;11.00;;;;;;;;5040391;27;11513;-80
2022/10/12 06:48:20;;;;;;;;;14.75;10.50;;;;;;;;5049188;27;11540;-81
2022/10/12 06:50:49;;;;;;;;;16.00;11.00;;;;;;;;5062504;27;11506;-82
2022/10/12 06:53:16;;;;;;;;;14.25;12.50;;;;;;;;5037500;27;11648;-80
2022/10/12 06:55:54;;;;;;;;;13.25;13.25;;;;;;;;5019752;27;11581;-84
2022/10/12 06:58:22;;;;;;;;;12.25;11.25;;;;;;;;5057912;27;11690;-81
2022/10/12 07:00:51;;;;;;;;;9.50;9.50;;;;;;;;5032438;27;11593;-80
2022/10/12 07:03:19;;;;;;;;;9.00;9.00;;;;;;;;5022055;27;10959;-78
2022/10/12 07:05:51;;;;;;;;;12.00;12.00;;;;;;;;5040834;27;11524;-80
2022/10/12 07:08:18;;;;;;;;;11.50;11.50;;;;;;;;5009822;27;11583;-81
2022/10/12 07:10:45;;;;;;;;;17.75;15.75;;;;;;;;5042724;27;11484;-78
2022/10/12 07:13:13;;;;;;;;;14.25;12.00;;;;;;;;5055668;27;11654;-78
2022/10/12 07:15:40;;;;;;;;;11.50;11.00;;;;;;;;5006272;28;11569;-79
2022/10/12 07:18:07;;;;;;;;;15.00;13.00;;;;;;;;5041204;28;11564;-78
2022/10/12 07:20:35;;;;;;;;;24.00;24.00;;;;;;;;5062985;27;11534;-79
2022/10/12 07:23:04;;;;;;;;;23.00;19.00;;;;;;;;5035813;28;12392;-79
2022/10/12 07:25:32;;;;;;;;;27.50;23.00;;;;;;;;5018741;28;11569;-78
2022/10/12 07:27:59;;;;;;;;;20.00;17.50;;;;;;;;5046723;27;11623;-80
2022/10/12 07:30:26;;;;;;;;;19.00;13.50;;;;;;;;5064423;27;11637;-82
2022/10/12 07:32:54;;;;;;;;;12.75;12.00;;;;;;;;5038676;27;11928;-82
2022/10/12 07:35:25;;;;;;;;;15.00;15.00;;;;;;;;5030157;28;11581;-81
2022/10/12 07:37:53;;;;;;;;;13.50;13.50;;;;;;;;5027764;27;11673;-83
2022/10/12 07:40:25;;;;;;;;;16.50;15.75;;;;;;;;5035990;27;11563;-85
2022/10/12 07:42:55;;;;;;;;;19.25;19.25;;;;;;;;5056289;27;11648;-83
2022/10/12 07:45:23;;;;;;;;;14.00;14.00;;;;;;;;5019879;28;11547;-83
2022/10/12 07:47:51;;;;;;;;;16.75;16.75;;;;;;;;5034090;28;11506;-82
2022/10/12 07:50:19;;;;;;;;;17.75;17.25;;;;;;;;5050306;27;11498;-77
2022/10/12 07:52:46;;;;;;;;;17.75;16.00;;;;;;;;5044439;27;11495;-80
2022/10/12 07:55:14;;;;;;;;;13.75;12.00;;;;;;;;5054885;27;11548;-76
2022/10/12 07:57:43;;;;;;;;;14.25;12.25;;;;;;;;5041912;27;11449;-75
2022/10/12 08:00:11;;;;;;;;;13.75;13.75;;;;;;;;5040543;27;11571;-77
2022/10/12 08:02:38;;;;;;;;;6.75;6.75;;;;;;;;5031765;27;12248;-77
2022/10/12 08:05:08;;;;;;;;;10.75;10.75;;;;;;;;5037835;28;11482;-78
2022/10/12 08:07:35;;;;;;;;;19.75;16.00;;;;;;;;5028190;28;11497;-75
2022/10/12 08:10:03;;;;;;;;;15.00;15.00;;;;;;;;5047014;27;11509;-77
2022/10/12 08:12:34;;;;;;;;;12.50;12.50;;;;;;;;5029252;28;11494;-77
2022/10/12 08:15:05;;;;;;;;;18.00;17.00;;;;;;;;5033641;28;11432;-78
2022/10/12 08:17:36;;;;;;;;;20.00;16.75;;;;;;;;5051691;28;12270;-77
2022/10/12 08:20:05;;;;;;;;;16.00;16.00;;;;;;;;5057183;27;11496;-77
2022/10/12 08:22:33;;;;;;;;;14.25;14.00;;;;;;;;5037374;27;11469;-79
2022/10/12 08:25:01;;;;;;;;;16.25;14.50;;;;;;;;5032740;28;11485;-78
2022/10/12 08:27:31;;;;;;;;;17.25;16.50;;;;;;;;5037303;28;11630;-78
2022/10/12 08:29:59;;;;;;;;;14.25;14.25;;;;;;;;5039012;28;12253;-79
2022/10/12 08:32:28;;;;;;;;;19.25;16.50;;;;;;;;5019999;27;11444;-79
2022/10/12 08:34:56;;;;;;;;;14.75;14.75;;;;;;;;5028197;27;11475;-79
2022/10/12 08:37:25;;;;;;;;;16.50;16.50;;;;;;;;5058598;27;11134;-78
2022/10/12 08:39:53;;;;;;;;;18.50;17.00;;;;;;;;5046239;27;11278;-79
2022/10/12 08:42:31;;;;;;;;;22.25;18.00;;;;;;;;5056734;27;11190;-78
2022/10/12 08:45:28;;;;;;;;;17.50;17.50;;;;;;;;5051484;27;11182;-78
2022/10/12 08:47:59;;;;;;;;;15.00;14.00;;;;;;;;5031218;27;11126;-78
2022/10/12 08:50:35;;;;;;;;;17.75;17.00;;;;;;;;5042995;27;11337;-79
2022/10/12 08:53:08;;;;;;;;;17.75;15.00;;;;;;;;5052236;27;11364;-78
2022/10/12 08:55:39;;;;;;;;;26.00;22.00;;;;;;;;5030007;27;11666;-79
2022/10/12 08:58:15;;;;;;;;;17.25;16.75;;;;;;;;5044735;27;10857;-78
2022/10/12 09:00:44;;;;;;;;;26.25;26.25;;;;;;;;5047455;27;11487;-78
2022/10/12 09:03:28;;;;;;;;;17.75;17.75;;;;;;;;5038352;27;10880;-79
2022/10/12 09:06:02;;;;;;;;;25.25;22.75;;;;;;;;5030536;27;10692;-79
2022/10/12 09:08:39;;;;;;;;;24.25;21.25;;;;;;;;5053236;27;10707;-78
2022/10/12 09:11:18;;;;;;;;;17.50;12.50;;;;;;;;5029229;27;10442;-78
2022/10/12 09:13:53;;;;;;;;;21.50;21.50;;;;;;;;5045586;27;10171;-79
2022/10/12 09:16:23;;;;;;;;;14.25;14.00;;;;;;;;5037504;27;10464;-79
2022/10/12 09:19:00;;;;;;;;;17.00;13.75;;;;;;;;5040651;27;10007;-76
2022/10/12 09:21:29;;;;;;;;;16.25;16.25;;;;;;;;5031649;27;9916;-78
2022/10/12 09:23:57;;;;;;;;;13.75;13.75;;;;;;;;5034869;27;9875;-80
2022/10/12 09:26:33;;;;;;;;;21.25;17.25;;;;;;;;5056391;27;9676;-81
2022/10/12 09:29:01;;;;;;;;;15.75;13.25;;;;;;;;5033974;27;10542;-79
2022/10/12 09:31:49;;;;;;;;;15.75;15.75;;;;;;;;5050199;27;9646;-79
2022/10/12 09:34:18;;;;;;;;;17.00;16.00;;;;;;;;5068090;27;9667;-79
2022/10/12 09:36:45;;;;;;;;;16.00;13.00;;;;;;;;5037681;27;9367;-80
2022/10/12 09:39:17;;;;;;;;;8.67;8.67;;;;;;;;5041947;27;9475;-79
2022/10/12 09:41:46;;;;;;;;;11.00;10.67;;;;;;;;5040208;27;9008;-80
2022/10/12 09:44:20;;;;;;;;;11.00;11.00;;;;;;;;5047880;27;8969;-80
2022/10/12 09:46:54;;;;;;;;;8.25;6.50;;;;;;;;5045170;27;8922;-79
2022/10/12 09:49:23;;;;;;;;;10.00;7.25;;;;;;;;5043120;27;8861;-80
2022/10/12 09:52:01;;;;;;;;;8.25;8.25;;;;;;;;5037250;27;9792;-79
2022/10/12 09:54:30;;;;;;;;;8.50;7.00;;;;;;;;5040327;27;8861;-78
2022/10/12 09:56:58;;;;;;;;;7.00;6.00;;;;;;;;5040677;27;8837;-78
2022/10/12 09:59:29;;;;;;;;;7.00;7.00;;;;;;;;5034667;27;8865;-77
2022/10/12 10:02:10;;;;;;;;;6.75;6.50;;;;;;;;5043720;27;8868;-79
2022/10/12 10:04:39;;;;;;;;;6.50;6.50;;;;;;;;5031277;27;8871;-80
2022/10/12 10:07:19;;;;;;;;;8.25;7.25;;;;;;;;5033090;27;8865;-79
2022/10/12 10:09:48;;;;;;;;;5.75;5.75;;;;;;;;5051708;27;8891;-76
2022/10/12 10:12:23;;;;;;;;;8.25;6.75;;;;;;;;5045706;27;8869;-76
2022/10/12 10:14:53;;;;;;;;;10.00;5.50;;;;;;;;5052219;27;9603;-76
2022/10/12 10:17:26;;;;;;;;;10.75;8.00;;;;;;;;5053317;27;8847;-76
2022/10/12 10:19:59;;;;;;;;;5.75;5.75;;;;;;;;5030457;27;8845;-76
2022/10/12 10:22:26;;;;;;;;;6.25;5.75;;;;;;;;5044407;27;8996;-76
2022/10/12 10:24:57;;;;;;;;;7.00;7.00;;;;;;;;5031344;27;8849;-76
2022/10/12 10:27:35;;;;;;;;;7.00;5.00;;;;;;;;5043939;27;8814;-75
2022/10/12 10:30:15;;;;;;;;;6.50;5.00;;;;;;;;5042762;27;8962;-76
2022/10/12 10:32:43;;;;;;;;;9.50;8.50;;;;;;;;5024020;28;8858;-76
2022/10/12 10:35:20;;;;;;;;;6.50;6.50;;;;;;;;5020858;28;8841;-76
2022/10/12 10:37:50;;;;;;;;;6.00;6.00;;;;;;;;5051230;27;8876;-75
2022/10/12 10:40:21;;;;;;;;;8.60;7.20;;;;;;;;5050415;27;8847;-75
2022/10/12 10:42:55;;;;;;;;;9.20;7.40;;;;;;;;5050121;27;8837;-76
2022/10/12 10:45:25;;;;;;;;;6.40;6.40;;;;;;;;5054732;27;8849;-75
2022/10/12 10:48:00;;;;;;;;;6.40;6.40;;;;;;;;5024306;27;8841;-77
2022/10/12 10:50:32;;;;;;;;;6.00;6.00;;;;;;;;5029750;27;8996;-79
2022/10/12 10:53:03;;;;;;;;;7.00;7.00;;;;;;;;5086682;27;8839;-78
2022/10/12 10:55:45;;;;;;;;;9.20;7.80;;;;;;;;5047435;27;8806;-78
2022/10/12 10:58:24;;;;;;;;;4.60;4.20;;;;;;;;5037239;27;8937;-78
2022/10/12 11:00:55;;;;;;;;;9.00;7.40;;;;;;;;5052660;27;8853;-78
2022/10/12 11:03:27;;;;;;;;;7.60;7.60;;;;;;;;5059089;27;8853;-78
2022/10/12 11:06:01;;;;;;;;;8.20;7.00;;;;;;;;5031718;27;8875;-79
2022/10/12 11:08:32;;;;;;;;;9.40;9.40;;;;;;;;5020871;27;8873;-79
2022/10/12 11:11:05;;;;;;;;;8.00;8.00;;;;;;;;5054601;27;8888;-79
2022/10/12 11:13:39;;;;;;;;;10.00;8.60;;;;;;;;5034494;28;8830;-81
2022/10/12 11:16:15;;;;;;;;;9.00;8.40;;;;;;;;5052155;27;8845;-80
2022/10/12 11:18:46;;;;;;;;;12.60;9.00;;;;;;;;5048286;27;8841;-79
2022/10/12 11:21:20;;;;;;;;;8.00;8.00;;;;;;;;5037050;27;8803;-80
2022/10/12 11:23:52;;;;;;;;;8.60;6.60;;;;;;;;5053649;27;8919;-79
2022/10/12 11:26:24;;;;;;;;;10.00;7.40;;;;;;;;5051596;27;8839;-80
2022/10/12 11:28:54;;;;;;;;;7.60;6.20;;;;;;;;5062620;27;8888;-75
2022/10/12 11:31:27;;;;;;;;;5.00;5.00;;;;;;;;5043090;28;8861;-74
2022/10/12 11:34:00;;;;;;;;;6.00;6.00;;;;;;;;5069530;27;8819;-76
2022/10/12 11:36:31;;;;;;;;;4.20;3.00;;;;;;;;5038917;27;8845;-76
2022/10/12 11:39:01;;;;;;;;;3.80;3.80;;;;;;;;5041085;28;9013;-76
2022/10/12 11:41:34;;;;;;;;;5.20;4.00;;;;;;;;5024986;28;8871;-75
2022/10/12 11:44:05;;;;;;;;;4.00;3.00;;;;;;;;5075057;27;8851;-77
2022/10/12 11:46:35;;;;;;;;;7.60;5.80;;;;;;;;5060371;27;8888;-77
2022/10/12 11:49:08;;;;;;;;;7.00;5.40;;;;;;;;5023616;28;8842;-78
2022/10/12 11:51:37;;;;;;;;;4.60;4.60;;;;;;;;5038451;28;8865;-78
2022/10/12 11:54:11;;;;;;;;;4.00;4.00;;;;;;;;5040931;27;9001;-78
2022/10/12 11:56:42;;;;;;;;;6.60;5.20;;;;;;;;5053791;27;8857;-77
2022/10/12 11:59:16;;;;;;;;;2.40;2.40;;;;;;;;5041494;28;8974;-78
2022/10/12 12:01:47;;;;;;;;;7.40;6.00;;;;;;;;5031892;27;9644;-78
2022/10/12 12:04:31;;;;;;;;;9.80;7.00;;;;;;;;5042339;27;8827;-78
2022/10/12 12:07:02;;;;;;;;;7.20;5.80;;;;;;;;5053823;27;8912;-79
2022/10/12 12:09:39;;;;;;;;;6.80;6.80;;;;;;;;5038468;27;8934;-79
2022/10/12 12:12:25;;;;;;;;;6.00;5.20;;;;;;;;5053564;27;8856;-78
2022/10/12 12:15:22;;;;;;;;;6.00;5.00;;;;;;;;5034474;27;8842;-77
2022/10/12 12:18:13;;;;;;;;;9.40;8.40;;;;;;;;5039357;27;8847;-77
2022/10/12 12:21:00;;;;;;;;;7.00;5.80;;;;;;;;5054233;27;8823;-77
2022/10/12 12:23:40;;;;;;;;;6.60;5.00;;;;;;;;5132811;27;9643;-77
2022/10/12 12:26:15;;;;;;;;;8.00;7.00;;;;;;;;5018329;27;8973;-77
2022/10/12 12:28:46;;;;;;;;;4.60;4.60;;;;;;;;5041483;27;8948;-78
2022/10/12 12:31:24;;;;;;;;;9.80;6.80;;;;;;;;5037494;27;8837;-78
2022/10/12 12:34:04;;;;;;;;;8.00;7.00;;;;;;;;5037450;27;8868;-78
2022/10/12 12:36:41;;;;;;;;;8.20;7.00;;;;;;;;5044179;27;8843;-77
2022/10/12 12:39:24;;;;;;;;;8.40;7.00;;;;;;;;5047474;27;8861;-78
2022/10/12 12:41:59;;;;;;;;;6.80;6.80;;;;;;;;5031337;27;8905;-77
2022/10/12 12:44:39;;;;;;;;;6.60;6.60;;;;;;;;5055304;27;8861;-77
2022/10/12 12:47:22;;;;;;;;;7.00;5.40;;;;;;;;5052212;27;8963;-78
2022/10/12 12:49:55;;;;;;;;;6.00;6.00;;;;;;;;5063582;27;8865;-80
2022/10/12 12:52:28;;;;;;;;;6.40;6.40;;;;;;;;5027556;27;9671;-80
2022/10/12 12:55:32;;;;;;;;;8.60;7.00;;;;;;;;5029993;27;8841;-79
2022/10/12 12:58:15;;;;;;;;;4.20;4.20;;;;;;;;5023227;27;8841;-74
2022/10/12 13:00:50;;;;;;;;;5.80;5.80;;;;;;;;5050666;27;8843;-77
2022/10/12 13:04:04;;;;;;;;;8.60;6.20;;;;;;;;5040956;27;8845;-76
2022/10/12 13:07:16;;;;;;;;;5.00;5.00;;;;;;;;4978355;28;9676;-79
2022/10/12 13:09:58;;;;;;;;;6.00;6.00;;;;;;;;5035099;27;8835;-77
2022/10/12 13:12:46;;;;;;;;;7.80;7.80;;;;;;;;5053095;27;8849;-78
2022/10/12 13:15:50;;;;;;;;;11.40;7.20;;;;;;;;5028576;27;8865;-77
2022/10/12 13:18:47;;;;;;;;;9.00;6.00;;;;;;;;5037452;27;8883;-76
2022/10/12 13:21:18;;;;;;;;;5.00;5.00;;;;;;;;5031821;27;9604;-76
2022/10/12 13:23:53;;;;;;;;;6.20;5.80;;;;;;;;5033176;27;8919;-76
2022/10/12 13:26:31;;;;;;;;;7.60;7.60;;;;;;;;5022321;27;8861;-78
2022/10/12 13:29:02;;;;;;;;;6.00;6.00;;;;;;;;5056676;27;8921;-76
2022/10/12 13:31:34;;;;;;;;;9.20;6.20;;;;;;;;5052243;27;8873;-77
2022/10/12 13:34:10;;;;;;;;;7.40;7.40;;;;;;;;5044284;27;8941;-77
2022/10/12 13:36:51;;;;;;;;;4.80;4.80;;;;;;;;5059756;27;8913;-78
2022/10/12 13:39:23;;;;;;;;;7.40;6.80;;;;;;;;5049546;27;8915;-77
2022/10/12 13:41:54;;;;;;;;;7.00;6.00;;;;;;;;5038431;27;8975;-80
2022/10/12 13:44:26;;;;;;;;;7.20;6.40;;;;;;;;5043451;27;8952;-79
2022/10/12 13:47:00;;;;;;;;;5.20;5.20;;;;;;;;5032301;27;8939;-80
2022/10/12 13:49:29;;;;;;;;;7.60;6.00;;;;;;;;5035234;27;9007;-78
2022/10/12 13:51:59;;;;;;;;;5.00;5.00;;;;;;;;5056756;27;8849;-77
2022/10/12 13:54:28;;;;;;;;;7.20;7.00;;;;;;;;5042735;27;8973;-78
2022/10/12 13:56:58;;;;;;;;;5.60;5.60;;;;;;;;5057243;27;8847;-79
2022/10/12 13:59:31;;;;;;;;;6.00;6.00;;;;;;;;5043799;27;8837;-79
2022/10/12 14:02:01;;;;;;;;;3.40;3.40;;;;;;;;5046813;27;8835;-78
2022/10/12 14:04:30;;;;;;;;;8.00;6.00;;;;;;;;5044293;27;8981;-81
2022/10/12 14:07:01;;;;;;;;;5.00;5.00;;;;;;;;5042908;27;8866;-74
2022/10/12 14:09:37;;;;;;;;;4.60;4.60;;;;;;;;5043108;27;8853;-75
2022/10/12 14:12:05;;;;;;;;;6.20;6.20;;;;;;;;5036990;27;8906;-75
2022/10/12 14:14:35;;;;;;;;;6.20;6.20;;;;;;;;5047836;27;8843;-75
2022/10/12 14:17:03;;;;;;;;;4.80;4.80;;;;;;;;5029289;27;8842;-76
2022/10/12 14:19:41;;;;;;;;;7.00;5.60;;;;;;;;5022087;27;8845;-76
2022/10/12 14:22:11;;;;;;;;;7.00;7.00;;;;;;;;5040055;27;8937;-76
2022/10/12 14:24:41;;;;;;;;;6.80;6.80;;;;;;;;5039362;27;8864;-75
2022/10/12 14:27:19;;;;;;;;;4.60;4.60;;;;;;;;5020242;27;8853;-75
2022/10/12 14:29:48;;;;;;;;;6.40;5.40;;;;;;;;5036776;27;8880;-74
2022/10/12 14:32:42;;;;;;;;;7.00;7.00;;;;;;;;5048041;27;8846;-75
2022/10/12 14:35:20;;;;;;;;;8.00;6.20;;;;;;;;5046150;27;8849;-75
2022/10/12 14:37:49;;;;;;;;;6.60;6.60;;;;;;;;5029500;27;8846;-75
2022/10/12 14:40:33;;;;;;;;;2.80;2.80;;;;;;;;5034797;27;8845;-75
2022/10/12 14:43:14;;;;;;;;;5.80;5.80;;;;;;;;5034215;27;8840;-75
2022/10/12 14:45:43;;;;;;;;;4.80;3.00;;;;;;;;5050771;27;8851;-75
2022/10/12 14:48:15;;;;;;;;;5.80;4.80;;;;;;;;5037586;27;8929;-74
2022/10/12 14:50:44;;;;;;;;;8.40;6.60;;;;;;;;5053131;27;8849;-74
2022/10/12 14:53:13;;;;;;;;;6.00;6.00;;;;;;;;5040441;27;8893;-74
2022/10/12 14:55:41;;;;;;;;;6.00;4.80;;;;;;;;5030735;27;8885;-75
2022/10/12 14:58:14;;;;;;;;;6.20;6.20;;;;;;;;5055149;27;8903;-75
2022/10/12 15:00:46;;;;;;;;;4.60;4.60;;;;;;;;5041747;27;9726;-75
2022/10/12 15:03:13;;;;;;;;;6.40;6.40;;;;;;;;5047682;27;8846;-77
2022/10/12 15:05:40;;;;;;;;;6.40;6.40;;;;;;;;5034866;27;8965;-77